Time;durP1;ratioP1;P1;durP2;ratioP2;P2;SDS_P1;SDS_P2;PMS_P1;PMS_P2;Temp;Humidity;BMP_temperature;BMP_pressure;BME280_temperature;BME280_humidity;BME280_pressure;Samples;Min_cycle;Max_cycle;Signal;HPM_P1;HPM_P2
2022/01/08 00:00:32;;;;;;;4.18;0.77;;;2.10;99.90;;;;;;4265903;27;20486;-85
2022/01/08 00:02:33;;;;;;;3.17;1.00;;;2.60;99.90;;;;;;4266450;27;20477;-85
2022/01/08 00:04:34;;;;;;;1.75;0.68;;;2.80;99.90;;;;;;4218153;28;20059;-85
2022/01/08 00:06:35;;;;;;;5.97;1.13;;;1.10;99.90;;;;;;4230058;28;20047;-85
2022/01/08 00:08:37;;;;;;;5.28;0.95;;;1.50;99.90;;;;;;4248583;27;20039;-85
2022/01/08 00:10:40;;;;;;;9.90;1.98;;;1.50;99.90;;;;;;4214028;28;20071;-85
2022/01/08 00:12:43;;;;;;;4.50;0.85;;;1.10;99.90;;;;;;4232985;27;20047;-85
2022/01/08 00:14:45;;;;;;;6.63;0.88;;;2.20;99.90;;;;;;4229240;28;20171;-85
2022/01/08 00:16:46;;;;;;;4.72;0.60;;;2.70;99.90;;;;;;4248376;27;20101;-85
2022/01/08 00:18:48;;;;;;;1.88;0.63;;;1.80;99.90;;;;;;4216853;28;20043;-85
2022/01/08 00:20:50;;;;;;;7.50;0.70;;;1.50;99.90;;;;;;4230726;28;20043;-85
2022/01/08 00:22:53;;;;;;;4.85;0.93;;;2.40;99.90;;;;;;4233462;27;20444;-85
2022/01/08 00:24:55;;;;;;;2.80;0.73;;;1.20;99.90;;;;;;4249495;27;20039;-85
2022/01/08 00:26:58;;;;;;;2.03;0.80;;;0.80;99.90;;;;;;4230021;28;20130;-86
2022/01/08 00:28:59;;;;;;;5.45;0.85;;;2.70;99.90;;;;;;4230303;28;20491;-85
2022/01/08 00:31:01;;;;;;;5.18;0.80;;;1.50;99.90;;;;;;4230176;28;20501;-85
2022/01/08 00:33:02;;;;;;;5.38;1.10;;;1.50;99.90;;;;;;4213039;28;20052;-85
2022/01/08 00:35:13;;;;;;;1.75;0.65;;;2.50;99.90;;;;;;4212753;28;20067;-85
2022/01/08 00:37:15;;;;;;;0.88;0.47;;;1.50;99.90;;;;;;4220912;28;20047;-85
2022/01/08 00:39:16;;;;;;;2.92;0.40;;;1.20;99.90;;;;;;4237981;27;20535;-85
2022/01/08 00:41:17;;;;;;;1.90;0.80;;;2.70;99.90;;;;;;4230242;28;20135;-85
2022/01/08 00:43:19;;;;;;;4.10;0.70;;;1.90;99.90;;;;;;4238760;27;20047;-85
2022/01/08 00:45:21;;;;;;;2.65;0.65;;;1.50;99.90;;;;;;4213466;28;20044;-85
2022/01/08 00:47:23;;;;;;;4.55;0.93;;;3.10;99.90;;;;;;4230416;28;20106;-85
2022/01/08 00:49:25;;;;;;;2.20;0.70;;;2.60;99.90;;;;;;4221479;28;20036;-85
2022/01/08 00:51:27;;;;;;;4.88;0.77;;;2.80;99.90;;;;;;4248120;27;20124;-85
2022/01/08 00:53:28;;;;;;;6.05;0.93;;;2.30;99.90;;;;;;4248000;28;20053;-85
2022/01/08 00:55:31;;;;;;;3.40;0.80;;;1.80;99.90;;;;;;4247007;27;20062;-85
2022/01/08 00:57:33;;;;;;;4.20;0.95;;;1.00;99.90;;;;;;4229376;28;20044;-85
2022/01/08 00:59:34;;;;;;;2.45;0.95;;;1.60;99.90;;;;;;4230022;28;20048;-85
2022/01/08 01:01:35;;;;;;;2.25;0.70;;;0.80;99.90;;;;;;4230051;28;20542;-85
2022/01/08 01:03:36;;;;;;;3.63;0.80;;;1.60;99.90;;;;;;4249016;28;20075;-86
2022/01/08 01:05:38;;;;;;;6.40;0.93;;;1.90;99.90;;;;;;4213481;28;20462;-85
2022/01/08 01:07:41;;;;;;;3.03;0.70;;;1.50;99.90;;;;;;4224364;28;20167;-85
2022/01/08 01:09:43;;;;;;;2.03;0.80;;;2.70;99.90;;;;;;4213661;28;20054;-85
2022/01/08 01:11:45;;;;;;;3.47;0.93;;;2.50;99.90;;;;;;4247974;27;20042;-86
2022/01/08 01:13:47;;;;;;;3.67;1.00;;;1.90;99.90;;;;;;4248227;27;20047;-86
2022/01/08 01:15:50;;;;;;;4.47;0.90;;;2.20;99.90;;;;;;4213244;28;20051;-85
2022/01/08 01:17:52;;;;;;;5.10;1.20;;;2.70;99.90;;;;;;4213526;28;20503;-85
2022/01/08 01:19:53;;;;;;;3.45;1.17;;;2.80;99.90;;;;;;4226170;28;20050;-85
2022/01/08 01:21:58;;;;;;;3.42;0.90;;;2.90;99.90;;;;;;4231256;28;20114;-85
2022/01/08 01:24:07;;;;;;;5.60;0.82;;;1.40;99.90;;;;;;4249646;28;20035;-85
2022/01/08 01:26:14;;;;;;;5.93;1.20;;;1.40;99.90;;;;;;4245955;28;20087;-85
2022/01/08 01:30:38;;;;;;;3.53;1.25;;;1.70;99.90;;;;;;4248006;28;20058;-86
2022/01/08 01:48:46;;;;;;;2.95;0.82;;;2.60;99.90;;;;;;4199200;28;20060;-86
2022/01/08 01:50:49;;;;;;;6.70;1.45;;;1.60;99.90;;;;;;4199369;28;20050;-86
2022/01/08 01:52:51;;;;;;;4.93;1.10;;;1.40;99.90;;;;;;4230591;28;20044;-86
2022/01/08 01:54:54;;;;;;;9.88;1.63;;;1.40;99.90;;;;;;4230273;28;20032;-86
2022/01/08 01:56:57;;;;;;;2.67;1.00;;;1.40;99.90;;;;;;4230213;28;20035;-86
2022/01/08 01:59:00;;;;;;;1.73;0.93;;;2.20;99.90;;;;;;4230122;28;20104;-86
2022/01/08 02:01:02;;;;;;;1.67;1.00;;;1.70;99.90;;;;;;4219903;28;20043;-86
2022/01/08 02:03:04;;;;;;;3.47;1.13;;;1.50;99.90;;;;;;4233587;28;20131;-86
2022/01/08 02:05:05;;;;;;;2.83;1.38;;;2.40;99.90;;;;;;4268424;27;20045;-86
2022/01/08 02:07:08;;;;;;;9.27;1.27;;;1.50;99.90;;;;;;4261451;27;20435;-86
2022/01/08 02:09:12;;;;;;;2.90;1.05;;;1.30;99.90;;;;;;4215759;28;20055;-86
2022/01/08 02:11:12;;;;;;;7.55;1.20;;;3.10;99.90;;;;;;4233119;28;20156;-86
2022/01/08 02:13:28;;;;;;;5.22;1.40;;;1.70;99.90;;;;;;4258052;27;20043;-86
2022/01/08 02:15:29;;;;;;;3.13;1.35;;;2.50;99.90;;;;;;4228762;28;20076;-86
2022/01/08 02:17:31;;;;;;;3.40;1.10;;;2.60;99.90;;;;;;4215333;28;20055;-86
2022/01/08 02:19:33;;;;;;;3.97;0.90;;;2.20;99.90;;;;;;4242167;27;20039;-86
2022/01/08 02:21:34;;;;;;;4.03;1.17;;;1.60;99.90;;;;;;4268165;27;20054;-86
2022/01/08 02:23:36;;;;;;;4.15;1.23;;;1.50;99.90;;;;;;4267828;27;20043;-86
2022/01/08 02:25:38;;;;;;;5.95;0.90;;;2.80;99.90;;;;;;4257276;27;20072;-86
2022/01/08 02:27:38;;;;;;;6.28;1.10;;;0.80;99.90;;;;;;4232702;28;20054;-86
2022/01/08 02:29:40;;;;;;;2.00;1.17;;;1.80;99.90;;;;;;4251319;27;20043;-86
2022/01/08 02:31:51;;;;;;;3.30;0.93;;;2.80;99.90;;;;;;4250640;27;20049;-86
2022/01/08 02:33:54;;;;;;;2.03;0.98;;;2.70;99.90;;;;;;4232379;27;20373;-86
2022/01/08 02:35:55;;;;;;;6.72;1.10;;;2.40;99.90;;;;;;4233464;28;20056;-86
2022/01/08 02:37:56;;;;;;;2.90;1.27;;;1.90;99.90;;;;;;4245655;27;20082;-86
2022/01/08 02:40:01;;;;;;;1.88;0.90;;;1.50;99.90;;;;;;4251890;27;20072;-86
2022/01/08 02:42:02;;;;;;;5.00;0.90;;;1.70;99.90;;;;;;4251146;27;20051;-86
2022/01/08 02:44:05;;;;;;;6.07;0.95;;;0.40;99.90;;;;;;4259957;27;20487;-85
2022/01/08 02:46:07;;;;;;;2.88;0.80;;;1.50;99.90;;;;;;4251116;28;20024;-85
2022/01/08 02:48:09;;;;;;;1.05;0.77;;;2.20;99.90;;;;;;4251012;28;20031;-85
2022/01/08 02:50:12;;;;;;;1.60;1.05;;;1.50;99.90;;;;;;4249964;28;20040;-87
2022/01/08 02:52:16;;;;;;;1.70;0.70;;;1.50;99.90;;;;;;4277291;27;20074;-85
2022/01/08 02:54:20;;;;;;;2.50;0.63;;;2.40;99.90;;;;;;4254491;27;20147;-86
2022/01/08 02:56:22;;;;;;;2.33;0.65;;;1.60;99.90;;;;;;4269890;27;20051;-86
2022/01/08 02:58:26;;;;;;;2.08;0.77;;;1.60;99.90;;;;;;4251181;27;20408;-86
2022/01/08 03:00:27;;;;;;;1.05;0.52;;;1.50;99.90;;;;;;4270517;27;20043;-86
2022/01/08 03:02:29;;;;;;;3.28;0.55;;;3.10;99.90;;;;;;4236222;28;20130;-87
2022/01/08 03:04:31;;;;;;;4.15;0.50;;;1.40;99.90;;;;;;4270136;27;20384;-87
2022/01/08 03:06:32;;;;;;;2.72;0.80;;;1.60;99.90;;;;;;4249460;27;20051;-86
2022/01/08 03:08:34;;;;;;;1.65;0.50;;;2.70;99.90;;;;;;4257466;27;20456;-86
2022/01/08 03:10:35;;;;;;;6.95;1.08;;;1.50;99.90;;;;;;4250242;27;20039;-86
2022/01/08 03:12:38;;;;;;;4.32;0.80;;;1.60;99.90;;;;;;4250540;27;20135;-86
2022/01/08 03:14:41;;;;;;;0.25;0.20;;;2.90;99.90;;;;;;4215772;28;20486;-87
2022/01/08 03:16:43;;;;;;;0.65;0.32;;;2.10;99.90;;;;;;4229962;28;20040;-86
2022/01/08 03:18:48;;;;;;;2.25;0.93;;;1.50;99.90;;;;;;4250102;27;20046;-86
2022/01/08 03:21:01;;;;;;;1.48;0.47;;;2.40;99.90;;;;;;4232544;28;20055;-86
2022/01/08 03:23:05;;;;;;;5.25;0.50;;;2.00;99.90;;;;;;4215007;28;20048;-86
2022/01/08 03:25:06;;;;;;;1.95;0.50;;;1.80;99.90;;;;;;4214594;28;20075;-86
2022/01/08 03:27:15;;;;;;;1.20;0.50;;;1.40;99.90;;;;;;4244683;27;20501;-86
2022/01/08 03:29:16;;;;;;;1.58;0.65;;;0.20;99.90;;;;;;4232199;28;20047;-86
2022/01/08 03:31:20;;;;;;;3.50;0.60;;;0.90;99.90;;;;;;4267356;27;20074;-86
2022/01/08 03:33:20;;;;;;;1.00;0.40;;;1.30;99.90;;;;;;4231987;28;20051;-86
2022/01/08 03:35:22;;;;;;;2.88;0.50;;;1.60;99.90;;;;;;4231617;28;20043;-86
2022/01/08 03:37:23;;;;;;;6.63;0.95;;;1.40;99.90;;;;;;4259023;27;20109;-86
2022/01/08 03:39:29;;;;;;;1.80;0.60;;;2.70;99.90;;;;;;4250550;27;20047;-86
2022/01/08 03:41:30;;;;;;;4.95;0.55;;;2.40;99.90;;;;;;4249819;27;20142;-86
2022/01/08 03:43:32;;;;;;;4.70;0.52;;;1.70;99.90;;;;;;4239918;27;20491;-86
2022/01/08 03:45:35;;;;;;;2.15;0.77;;;0.80;99.90;;;;;;4249165;27;20081;-86
2022/01/08 03:49:55;;;;;;;2.95;0.95;;;2.40;99.90;;;;;;4249142;27;20047;-86
2022/01/08 03:51:56;;;;;;;3.55;0.50;;;1.20;99.90;;;;;;4249479;27;20058;-86
2022/01/08 03:53:58;;;;;;;2.70;0.50;;;2.40;99.90;;;;;;4232683;28;20169;-86
2022/01/08 03:56:00;;;;;;;1.00;0.45;;;2.20;99.90;;;;;;4253379;27;20124;-86
2022/01/08 03:58:02;;;;;;;1.58;0.55;;;2.80;99.90;;;;;;4215417;28;20052;-86
2022/01/08 04:00:04;;;;;;;8.30;0.60;;;1.30;99.90;;;;;;4214582;28;20076;-86
2022/01/08 04:02:08;;;;;;;3.95;0.45;;;1.20;99.90;;;;;;4233412;27;20050;-86
2022/01/08 04:04:09;;;;;;;0.65;0.30;;;1.60;99.90;;;;;;4231811;28;20051;-86
2022/01/08 04:06:11;;;;;;;5.50;1.05;;;2.30;99.90;;;;;;4232086;28;20043;-86
2022/01/08 04:08:15;;;;;;;2.28;0.60;;;2.40;99.90;;;;;;4249908;27;20115;-86
2022/01/08 04:10:17;;;;;;;3.80;0.63;;;1.10;99.90;;;;;;4249086;27;20521;-86
2022/01/08 04:12:29;;;;;;;0.90;0.45;;;2.30;99.90;;;;;;4231649;28;20047;-86
2022/01/08 04:14:37;;;;;;;4.47;1.27;;;2.60;99.90;;;;;;4249898;27;20040;-86
2022/01/08 04:16:42;;;;;;;1.23;0.80;;;1.10;99.90;;;;;;4262632;27;20050;-86
2022/01/08 04:18:44;;;;;;;5.35;0.57;;;1.10;99.90;;;;;;4266721;27;20585;-85
2022/01/08 04:21:02;;;;;;;4.47;0.43;;;1.10;99.90;;;;;;4231711;28;20055;-86
2022/01/08 04:23:03;;;;;;;1.67;0.50;;;1.10;99.90;;;;;;4247538;27;20414;-87
2022/01/08 04:25:04;;;;;;;1.60;0.30;;;2.40;99.90;;;;;;4248086;27;20046;-86
2022/01/08 04:27:06;;;;;;;2.88;0.40;;;1.20;99.90;;;;;;4266802;27;20103;-86
2022/01/08 04:29:10;;;;;;;2.72;0.68;;;1.20;99.90;;;;;;4248824;27;20055;-86
2022/01/08 04:31:11;;;;;;;1.65;0.65;;;2.40;99.90;;;;;;4260711;27;20031;-86
2022/01/08 04:33:12;;;;;;;2.95;0.60;;;2.70;99.90;;;;;;4249683;27;20131;-86
2022/01/08 04:35:14;;;;;;;4.10;0.63;;;1.50;99.90;;;;;;4248783;27;20126;-86
2022/01/08 04:37:16;;;;;;;1.13;0.40;;;1.30;99.90;;;;;;4256492;27;20043;-86
2022/01/08 04:39:16;;;;;;;1.25;0.43;;;2.90;99.90;;;;;;4266193;27;20039;-86
2022/01/08 04:41:17;;;;;;;1.75;0.50;;;1.00;99.90;;;;;;4230906;28;20055;-86
2022/01/08 04:43:20;;;;;;;5.50;0.70;;;1.30;99.90;;;;;;4240203;27;20056;-86
2022/01/08 04:45:28;;;;;;;1.27;0.32;;;1.40;99.90;;;;;;4248773;27;20128;-86
2022/01/08 04:47:29;;;;;;;1.88;1.17;;;1.90;99.90;;;;;;4259069;27;20401;-87
2022/01/08 04:49:34;;;;;;;3.22;0.68;;;1.50;99.90;;;;;;4220493;28;20127;-86
2022/01/08 04:51:35;;;;;;;5.05;0.98;;;1.60;99.90;;;;;;4248542;27;20047;-86
2022/01/08 04:53:36;;;;;;;1.88;0.80;;;2.80;99.90;;;;;;4248739;27;20042;-86
2022/01/08 04:55:38;;;;;;;3.25;1.10;;;1.70;99.90;;;;;;4230474;28;20039;-86
2022/01/08 04:57:40;;;;;;;4.22;0.85;;;2.00;99.90;;;;;;4213248;28;20040;-86
2022/01/08 04:59:41;;;;;;;2.35;0.90;;;2.70;99.90;;;;;;4248858;28;20039;-86
2022/01/08 05:01:44;;;;;;;4.47;0.80;;;1.80;99.90;;;;;;4247950;27;20157;-86
2022/01/08 05:03:46;;;;;;;2.58;0.60;;;1.80;99.90;;;;;;4213254;28;20137;-86
2022/01/08 05:05:48;;;;;;;5.10;0.80;;;3.20;99.90;;;;;;4213468;28;20043;-86
2022/01/08 05:07:49;;;;;;;4.43;0.68;;;1.70;99.90;;;;;;4248351;27;20075;-86
2022/01/08 05:09:50;;;;;;;3.67;0.77;;;3.10;99.90;;;;;;4212995;28;20048;-86
2022/01/08 05:11:52;;;;;;;2.15;0.82;;;2.30;99.90;;;;;;4229740;28;20048;-86
2022/01/08 05:13:55;;;;;;;3.67;0.60;;;1.70;99.90;;;;;;4242903;28;20522;-86
2022/01/08 05:15:57;;;;;;;2.40;0.80;;;2.20;99.90;;;;;;4230072;28;20043;-86
2022/01/08 05:18:00;;;;;;;4.93;0.80;;;2.20;99.90;;;;;;4265447;27;20118;-86
2022/01/08 05:20:08;;;;;;;1.90;0.55;;;1.60;99.90;;;;;;4262864;27;20094;-86
2022/01/08 05:22:17;;;;;;;4.82;1.25;;;1.60;99.90;;;;;;4265562;27;20085;-87
2022/01/08 05:24:17;;;;;;;2.38;0.70;;;2.90;99.90;;;;;;4246997;28;20100;-86
2022/01/08 05:26:19;;;;;;;3.13;0.93;;;2.70;99.90;;;;;;4228736;28;20047;-86
2022/01/08 05:28:21;;;;;;;5.05;0.85;;;1.50;99.90;;;;;;4264985;27;20034;-86
2022/01/08 05:30:25;;;;;;;1.35;0.80;;;1.90;99.90;;;;;;4230288;28;20101;-86
2022/01/08 05:32:27;;;;;;;4.05;0.82;;;1.40;99.90;;;;;;4230487;28;20218;-86
2022/01/08 05:34:29;;;;;;;3.88;0.80;;;1.40;99.90;;;;;;4249487;27;20046;-85
2022/01/08 05:36:31;;;;;;;3.88;0.65;;;1.90;99.90;;;;;;4231632;28;20040;-86
2022/01/08 05:38:32;;;;;;;4.85;0.55;;;2.40;99.90;;;;;;4233613;28;20052;-85
2022/01/08 05:40:33;;;;;;;1.67;0.68;;;2.80;99.90;;;;;;4234841;28;20079;-86
2022/01/08 05:42:35;;;;;;;0.95;0.60;;;2.20;99.90;;;;;;4236466;28;20402;-86
2022/01/08 05:44:37;;;;;;;3.05;0.60;;;2.10;99.90;;;;;;4252199;27;20040;-86
2022/01/08 05:46:43;;;;;;;5.30;0.80;;;2.90;99.90;;;;;;4251439;27;20466;-86
2022/01/08 05:48:44;;;;;;;8.18;1.10;;;1.50;99.90;;;;;;4251463;27;20058;-86
2022/01/08 05:50:45;;;;;;;2.92;0.93;;;1.60;99.90;;;;;;4251564;27;20125;-86
2022/01/08 05:52:48;;;;;;;3.25;0.70;;;3.00;99.90;;;;;;4251715;27;20054;-86
2022/01/08 05:54:51;;;;;;;1.67;0.60;;;1.80;99.90;;;;;;4219911;28;20601;-86
2022/01/08 05:56:52;;;;;;;0.98;0.55;;;1.50;99.90;;;;;;4250268;27;20123;-86
2022/01/08 05:58:54;;;;;;;2.45;0.77;;;2.60;99.90;;;;;;4250341;27;20043;-86
2022/01/08 06:00:56;;;;;;;6.68;1.00;;;2.90;99.90;;;;;;4228910;28;20055;-86
2022/01/08 06:02:58;;;;;;;6.90;0.73;;;1.50;99.90;;;;;;4216433;28;20090;-86
2022/01/08 06:04:59;;;;;;;1.77;0.52;;;2.30;99.90;;;;;;4251571;27;20039;-86
2022/01/08 06:06:59;;;;;;;4.53;0.60;;;0.60;99.90;;;;;;4232918;28;20520;-86
2022/01/08 06:09:02;;;;;;;3.90;0.80;;;2.70;99.90;;;;;;4215823;28;20043;-85
2022/01/08 06:11:03;;;;;;;4.53;1.17;;;1.80;99.90;;;;;;4232302;28;20501;-86
2022/01/08 06:13:05;;;;;;;1.15;0.57;;;1.40;99.90;;;;;;4233395;28;20169;-86
2022/01/08 06:15:06;;;;;;;1.45;0.50;;;1.60;99.90;;;;;;4233289;28;20500;-86
2022/01/08 06:17:14;;;;;;;8.05;1.20;;;1.40;99.90;;;;;;4250610;27;20054;-86
2022/01/08 06:19:16;;;;;;;2.97;0.75;;;1.30;99.90;;;;;;4239466;27;20058;-86
2022/01/08 06:21:18;;;;;;;3.13;0.52;;;1.70;99.90;;;;;;4236121;27;20043;-86
2022/01/08 06:23:19;;;;;;;2.15;0.65;;;2.70;99.90;;;;;;4250162;27;20456;-86
2022/01/08 06:25:22;;;;;;;1.05;0.60;;;1.40;99.90;;;;;;4224312;28;20047;-86
2022/01/08 06:27:25;;;;;;;2.13;0.60;;;1.30;99.90;;;;;;4268054;27;20082;-85
2022/01/08 06:29:27;;;;;;;8.60;0.88;;;2.50;99.90;;;;;;4267992;27;20071;-86
2022/01/08 06:31:29;;;;;;;3.15;0.70;;;1.20;99.90;;;;;;4262922;27;20051;-86
2022/01/08 06:33:31;;;;;;;2.75;0.82;;;1.30;99.90;;;;;;4234704;28;20511;-86
2022/01/08 06:35:34;;;;;;;3.15;0.80;;;1.30;99.90;;;;;;4254276;27;20495;-86
2022/01/08 06:37:36;;;;;;;4.55;1.10;;;1.40;99.90;;;;;;4230863;28;20052;-86
2022/01/08 06:39:38;;;;;;;2.03;0.95;;;1.50;99.90;;;;;;4241571;27;20048;-86
2022/01/08 06:41:41;;;;;;;6.43;1.10;;;1.60;99.90;;;;;;4235652;28;20055;-86
2022/01/08 06:43:45;;;;;;;7.57;0.98;;;0.90;99.90;;;;;;4246379;27;20115;-86
2022/01/08 06:45:45;;;;;;;6.40;1.33;;;2.80;99.90;;;;;;4249601;27;20502;-86
2022/01/08 06:47:46;;;;;;;5.60;1.50;;;1.30;99.90;;;;;;4267637;27;20109;-86
2022/01/08 06:49:48;;;;;;;5.72;1.17;;;1.20;99.90;;;;;;4219959;28;20048;-86
2022/01/08 06:51:51;;;;;;;6.03;1.33;;;1.20;99.90;;;;;;4215430;28;20381;-86
2022/01/08 06:53:52;;;;;;;6.18;1.52;;;2.50;99.90;;;;;;4214466;28;20044;-86
2022/01/08 06:55:54;;;;;;;5.95;1.13;;;2.30;99.90;;;;;;4227873;28;20088;-86
2022/01/08 06:57:56;;;;;;;3.40;1.00;;;1.30;99.90;;;;;;4248600;27;20043;-85
2022/01/08 07:00:02;;;;;;;4.90;1.40;;;1.70;99.90;;;;;;4248742;27;20122;-85
2022/01/08 07:02:03;;;;;;;6.65;1.77;;;1.30;99.90;;;;;;4231925;28;20047;-85
2022/01/08 07:04:04;;;;;;;4.03;1.73;;;1.30;99.90;;;;;;4232072;28;20095;-86
2022/01/08 07:06:06;;;;;;;6.82;1.27;;;1.20;99.90;;;;;;4231940;28;20067;-86
2022/01/08 07:08:10;;;;;;;6.93;1.60;;;1.90;99.90;;;;;;4265023;27;20039;-86
2022/01/08 07:10:14;;;;;;;5.55;1.88;;;1.90;99.90;;;;;;4248260;27;20043;-85
2022/01/08 07:12:16;;;;;;;6.68;2.15;;;1.80;99.90;;;;;;4216632;28;20056;-86
2022/01/08 07:14:19;;;;;;;7.68;2.03;;;1.50;99.90;;;;;;4266241;27;20123;-86
2022/01/08 07:16:19;;;;;;;7.93;1.63;;;1.20;99.90;;;;;;4235136;27;20083;-86
2022/01/08 07:18:20;;;;;;;6.55;1.85;;;0.90;99.90;;;;;;4232080;28;20635;-86
2022/01/08 07:20:21;;;;;;;7.95;1.65;;;1.40;99.90;;;;;;4248617;27;20043;-86
2022/01/08 07:22:23;;;;;;;5.50;1.90;;;1.20;99.90;;;;;;4248457;27;20051;-86
2022/01/08 07:24:24;;;;;;;4.70;1.33;;;0.20;99.90;;;;;;4235045;27;20072;-86
2022/01/08 07:26:27;;;;;;;7.45;2.00;;;1.50;99.90;;;;;;4239280;27;20060;-85
2022/01/08 07:28:29;;;;;;;4.78;2.00;;;1.10;99.90;;;;;;4215807;28;20080;-86
2022/01/08 07:30:31;;;;;;;6.70;1.30;;;1.80;99.90;;;;;;4232193;28;20203;-85
2022/01/08 07:32:32;;;;;;;4.72;1.75;;;2.10;99.90;;;;;;4250197;27;20472;-86
2022/01/08 07:34:33;;;;;;;8.80;1.77;;;2.10;99.90;;;;;;4250213;27;20039;-86
2022/01/08 07:36:36;;;;;;;7.10;2.00;;;2.50;99.90;;;;;;4252160;27;20065;-86
2022/01/08 07:38:37;;;;;;;8.48;1.88;;;1.20;99.90;;;;;;4252107;27;20039;-86
2022/01/08 07:40:37;;;;;;;7.85;2.08;;;1.90;99.90;;;;;;4249071;27;20042;-86
2022/01/08 07:42:39;;;;;;;2.22;1.15;;;2.00;99.90;;;;;;4258941;27;20410;-86
2022/01/08 07:44:41;;;;;;;5.15;2.10;;;2.50;99.90;;;;;;4217718;28;20083;-86
2022/01/08 07:46:44;;;;;;;5.38;1.88;;;0.80;99.90;;;;;;4215570;28;20051;-86
2022/01/08 07:48:46;;;;;;;6.47;1.83;;;2.00;99.90;;;;;;4253368;27;20424;-85
2022/01/08 07:50:48;;;;;;;8.07;2.20;;;2.20;99.90;;;;;;4249510;27;20070;-86
2022/01/08 07:52:52;;;;;;;5.47;2.00;;;1.50;99.90;;;;;;4249811;27;20558;-86
2022/01/08 07:54:54;;;;;;;7.82;2.08;;;1.20;99.90;;;;;;4262784;27;20083;-86
2022/01/08 07:56:55;;;;;;;3.90;1.60;;;1.90;99.90;;;;;;4249789;27;20039;-86
2022/01/08 07:58:57;;;;;;;8.30;1.83;;;1.50;99.90;;;;;;4223293;28;20044;-86
2022/01/08 08:01:00;;;;;;;7.70;1.73;;;1.30;99.90;;;;;;4231624;28;20074;-85
2022/01/08 08:03:02;;;;;;;10.43;2.20;;;1.30;99.90;;;;;;4228960;28;20074;-85
2022/01/08 08:05:04;;;;;;;2.03;1.33;;;1.30;99.90;;;;;;4260380;27;20046;-85
2022/01/08 08:07:05;;;;;;;3.95;1.70;;;1.30;99.90;;;;;;4225910;28;20109;-85
2022/01/08 08:09:06;;;;;;;8.88;1.90;;;1.40;99.90;;;;;;4260188;27;20046;-86
2022/01/08 08:11:06;;;;;;;3.38;1.58;;;2.80;99.90;;;;;;4267038;27;20478;-86
2022/01/08 08:13:07;;;;;;;7.22;1.88;;;2.90;99.90;;;;;;4260478;27;20047;-85
2022/01/08 08:15:15;;;;;;;8.70;3.22;;;1.40;99.90;;;;;;4231246;28;20469;-85
2022/01/08 08:17:16;;;;;;;8.65;2.08;;;1.40;99.90;;;;;;4249258;27;20035;-86
2022/01/08 08:19:22;;;;;;;3.85;1.50;;;1.40;99.90;;;;;;4215834;28;20048;-85
2022/01/08 08:21:25;;;;;;;7.93;2.78;;;2.70;99.90;;;;;;4251650;27;20092;-86
2022/01/08 08:23:26;;;;;;;4.88;1.30;;;1.50;99.90;;;;;;4233322;27;20043;-86
2022/01/08 08:25:28;;;;;;;4.68;1.50;;;2.70;99.90;;;;;;4249914;27;20403;-85
2022/01/08 08:27:35;;;;;;;5.88;1.42;;;2.30;99.90;;;;;;4215917;28;20048;-85
2022/01/08 08:29:38;;;;;;;10.30;2.45;;;1.60;99.90;;;;;;4250463;27;20092;-85
2022/01/08 08:31:39;;;;;;;7.32;2.08;;;2.50;99.90;;;;;;4250990;27;20095;-85
2022/01/08 08:33:40;;;;;;;4.10;1.52;;;2.80;99.90;;;;;;4220246;28;20035;-86
2022/01/08 08:35:41;;;;;;;4.75;1.58;;;1.70;99.90;;;;;;4248895;27;20054;-85
2022/01/08 08:37:46;;;;;;;7.43;1.63;;;2.00;99.90;;;;;;4267833;27;20850;-85
2022/01/08 08:39:47;;;;;;;7.43;1.70;;;3.20;99.90;;;;;;4232146;28;20127;-85
2022/01/08 08:41:48;;;;;;;5.82;1.35;;;2.50;99.90;;;;;;4231908;28;20077;-86
2022/01/08 08:43:51;;;;;;;10.95;1.73;;;3.00;99.90;;;;;;4247422;27;20051;-87
2022/01/08 08:46:24;;;;;;;8.98;1.92;;;2.30;99.90;;;;;;4250717;27;20552;-86
2022/01/08 08:48:25;;;;;;;2.20;1.30;;;2.40;99.90;;;;;;4232243;28;20071;-86
2022/01/08 08:50:27;;;;;;;4.88;1.88;;;2.50;99.90;;;;;;4238753;27;20047;-86
2022/01/08 08:52:31;;;;;;;10.63;2.35;;;2.50;99.90;;;;;;4214958;28;20051;-85
2022/01/08 08:54:32;;;;;;;2.65;1.67;;;3.30;99.90;;;;;;4231732;28;20500;-85
2022/01/08 08:56:33;;;;;;;5.15;1.60;;;3.10;99.90;;;;;;4231154;28;20046;-86
2022/01/08 08:58:35;;;;;;;7.80;1.17;;;3.20;99.90;;;;;;4233087;28;20078;-86
2022/01/08 09:00:36;;;;;;;2.92;1.25;;;3.70;99.90;;;;;;4232418;28;20044;-86
2022/01/08 09:02:37;;;;;;;5.00;1.40;;;2.70;99.90;;;;;;4214254;28;20530;-86
2022/01/08 09:04:41;;;;;;;4.55;1.38;;;3.30;99.90;;;;;;4230758;28;20050;-85
2022/01/08 09:06:42;;;;;;;3.88;1.48;;;2.50;99.90;;;;;;4218024;28;20091;-86
2022/01/08 09:08:45;;;;;;;4.55;1.30;;;2.10;99.90;;;;;;4231109;28;20048;-85
2022/01/08 09:10:46;;;;;;;5.50;1.35;;;2.80;99.90;;;;;;4234674;28;20105;-85
2022/01/08 09:12:49;;;;;;;8.25;1.48;;;4.30;99.90;;;;;;4221150;28;20118;-85
2022/01/08 09:14:50;;;;;;;4.50;1.55;;;3.20;99.90;;;;;;4250440;27;20037;-85
2022/01/08 09:16:57;;;;;;;10.93;1.55;;;4.30;99.90;;;;;;4247814;27;20041;-86
2022/01/08 09:18:59;;;;;;;6.20;1.67;;;3.80;99.90;;;;;;4246105;27;20551;-85
2022/01/08 09:21:00;;;;;;;7.55;1.42;;;5.30;99.90;;;;;;4252342;27;20062;-86
2022/01/08 09:23:02;;;;;;;7.45;1.63;;;4.40;99.90;;;;;;4243675;27;20411;-86
2022/01/08 09:25:04;;;;;;;3.25;1.33;;;5.00;99.90;;;;;;4232816;28;20043;-86
2022/01/08 09:27:06;;;;;;;4.72;1.33;;;5.40;99.90;;;;;;4233187;28;20081;-86
2022/01/08 09:29:07;;;;;;;4.10;1.38;;;5.70;99.90;;;;;;4233296;28;20462;-86
2022/01/08 09:31:08;;;;;;;7.57;1.42;;;6.00;99.90;;;;;;4240411;27;20551;-86
2022/01/08 09:33:10;;;;;;;5.18;1.30;;;7.00;99.90;;;;;;4251144;27;20043;-87
2022/01/08 09:35:15;;;;;;;5.05;2.28;;;7.00;99.90;;;;;;4236882;27;20044;-87
2022/01/08 09:37:17;;;;;;;9.35;1.20;;;6.10;99.90;;;;;;4216725;28;20063;-86
2022/01/08 09:39:18;;;;;;;7.22;1.27;;;7.10;99.90;;;;;;4233061;28;20047;-86
2022/01/08 09:41:19;;;;;;;5.03;1.33;;;7.40;99.90;;;;;;4233176;27;20506;-87
2022/01/08 09:43:24;;;;;;;7.38;1.70;;;6.30;99.90;;;;;;4235838;27;20059;-86
2022/01/08 09:45:25;;;;;;;6.07;1.45;;;5.10;99.90;;;;;;4226934;28;20054;-87
2022/01/08 09:47:27;;;;;;;4.28;1.10;;;5.90;99.90;;;;;;4217397;28;20519;-86
2022/01/08 09:49:28;;;;;;;3.28;1.60;;;4.40;99.90;;;;;;4233967;28;20093;-86
2022/01/08 09:51:29;;;;;;;6.63;1.67;;;5.20;99.90;;;;;;4234840;28;20433;-86
2022/01/08 09:53:30;;;;;;;8.23;1.80;;;5.20;99.90;;;;;;4235646;28;20044;-86
2022/01/08 09:55:31;;;;;;;6.22;1.58;;;5.20;99.90;;;;;;4234126;28;20055;-86
2022/01/08 09:57:31;;;;;;;5.32;1.50;;;4.70;99.90;;;;;;4247182;27;20070;-86
2022/01/08 09:59:35;;;;;;;5.50;1.38;;;4.10;99.90;;;;;;4251706;27;20054;-86
2022/01/08 10:01:37;;;;;;;3.03;1.10;;;5.80;99.90;;;;;;4247211;27;20053;-86
2022/01/08 10:03:37;;;;;;;2.50;1.10;;;5.40;99.90;;;;;;4251416;28;20051;-86
2022/01/08 10:05:48;;;;;;;5.65;1.40;;;5.60;99.90;;;;;;4252960;28;20036;-86
2022/01/08 10:07:59;;;;;;;5.38;1.55;;;4.40;99.90;;;;;;4252905;28;20039;-86
2022/01/08 10:10:18;;;;;;;11.88;1.30;;;4.50;99.90;;;;;;4229790;28;20040;-86
2022/01/08 10:12:21;;;;;;;8.40;1.55;;;4.40;99.90;;;;;;4234433;28;20093;-86
2022/01/08 10:17:48;;;;;;;9.15;1.30;;;4.30;99.90;;;;;;4236739;28;20047;-87
2022/01/08 10:19:52;;;;;;;8.30;1.92;;;4.30;99.90;;;;;;4217949;28;20078;-87
2022/01/08 10:21:55;;;;;;;3.72;1.42;;;4.60;99.90;;;;;;4232143;28;20051;-86
2022/01/08 10:24:10;;;;;;;4.70;1.25;;;4.20;99.90;;;;;;4233125;28;20108;-86
2022/01/08 10:26:13;;;;;;;7.03;1.60;;;5.10;99.90;;;;;;4233811;28;20054;-87
2022/01/08 10:28:14;;;;;;;5.07;1.60;;;4.20;99.90;;;;;;4233804;28;20086;-87
2022/01/08 10:30:26;;;;;;;6.82;1.30;;;4.20;99.90;;;;;;4232783;28;20696;-87
2022/01/08 10:32:27;;;;;;;3.20;1.25;;;4.20;99.90;;;;;;4215621;28;20056;-86
2022/01/08 10:34:32;;;;;;;13.60;1.60;;;4.60;99.90;;;;;;4217087;28;20070;-87
2022/01/08 10:36:36;;;;;;;5.28;1.70;;;4.90;99.90;;;;;;4233653;28;20089;-86
2022/01/08 10:38:36;;;;;;;5.65;1.38;;;4.20;99.90;;;;;;4215477;28;20087;-87
2022/01/08 10:40:37;;;;;;;5.53;1.10;;;4.10;99.90;;;;;;4215702;28;20044;-87
2022/01/08 10:42:38;;;;;;;3.85;1.15;;;4.00;99.90;;;;;;4233419;28;20036;-86
2022/01/08 10:44:41;;;;;;;6.22;1.20;;;3.90;99.90;;;;;;4234189;28;20055;-86
2022/01/08 10:47:02;;;;;;;9.85;1.77;;;3.90;99.90;;;;;;4232433;28;20054;-86
2022/01/08 10:49:04;;;;;;;2.55;1.15;;;3.80;99.90;;;;;;4233518;28;20402;-86
2022/01/08 10:51:10;;;;;;;7.65;1.60;;;4.30;99.90;;;;;;4233910;28;20040;-87
2022/01/08 10:53:11;;;;;;;8.10;1.73;;;4.60;99.90;;;;;;4232854;28;20210;-86
2022/01/08 10:55:12;;;;;;;5.25;1.33;;;3.70;99.90;;;;;;4218777;28;20046;-86
2022/01/08 10:57:14;;;;;;;6.97;1.45;;;3.70;99.90;;;;;;4248829;27;20188;-86
2022/01/08 10:59:30;;;;;;;9.65;1.75;;;3.70;99.90;;;;;;4233933;28;20403;-86
2022/01/08 11:01:52;;;;;;;6.15;1.40;;;3.80;99.90;;;;;;4227462;28;20043;-86
2022/01/08 11:03:56;;;;;;;10.82;1.40;;;3.60;99.90;;;;;;4226839;28;20048;-86
2022/01/08 11:06:02;;;;;;;2.58;1.55;;;4.60;99.90;;;;;;4250411;27;20047;-86
2022/01/08 11:08:14;;;;;;;4.13;1.88;;;3.50;99.90;;;;;;4242056;27;20039;-86
2022/01/08 11:10:24;;;;;;;4.68;1.63;;;3.50;99.90;;;;;;4235555;28;20051;-87
2022/01/08 11:12:41;;;;;;;7.55;1.83;;;3.50;99.90;;;;;;4238151;27;20050;-89